createdAt,value
2022-11-29T00:00:09.864Z,48.15
2022-11-29T00:02:59.799Z,49.58
2022-11-29T00:05:47.076Z,53.00
2022-11-29T00:08:35.063Z,50.33
2022-11-29T00:11:46.637Z,57.50
2022-11-29T00:14:33.779Z,52.55
2022-11-29T00:17:20.937Z,55.28
2022-11-29T00:20:10.679Z,55.97
2022-11-29T00:22:57.682Z,57.88
2022-11-29T00:25:44.856Z,61.15
2022-11-29T00:28:32.732Z,56.58
2022-11-29T00:31:30.370Z,58.08
2022-11-29T00:34:17.476Z,54.85
2022-11-29T00:37:04.581Z,55.70
2022-11-29T00:39:51.628Z,63.75
2022-11-29T00:42:38.659Z,56.78
2022-11-29T00:45:25.622Z,63.45
2022-11-29T00:48:12.685Z,55.70
2022-11-29T00:51:00.028Z,65.25
2022-11-29T00:53:47.415Z,65.78
2022-11-29T00:56:34.605Z,65.07
2022-11-29T00:59:21.783Z,78.53
2022-11-29T01:02:08.847Z,61.08
2022-11-29T01:04:55.957Z,59.65
2022-11-29T01:07:43.195Z,57.30
2022-11-29T01:10:30.382Z,89.43
2022-11-29T01:13:17.621Z,86.32
2022-11-29T01:16:06.233Z,97.15
2022-11-29T01:18:53.319Z,83.97
2022-11-29T01:21:41.156Z,89.55
2022-11-29T01:24:29.784Z,62.65
2022-11-29T01:27:16.925Z,73.13
2022-11-29T01:30:09.341Z,65.30
2022-11-29T01:32:56.360Z,76.25
2022-11-29T01:35:51.755Z,77.53
2022-11-29T01:38:39.446Z,114.70
2022-11-29T01:41:29.466Z,113.35
2022-11-29T01:44:16.402Z,100.90
2022-11-29T01:47:03.715Z,59.10
2022-11-29T01:49:50.809Z,78.68
2022-11-29T01:52:38.282Z,99.05
2022-11-29T01:55:25.783Z,114.50
2022-11-29T01:58:14.697Z,89.85
2022-11-29T02:01:01.883Z,76.97
2022-11-29T02:03:49.087Z,89.10
2022-11-29T02:06:36.306Z,84.38
2022-11-29T02:09:23.844Z,61.42
2022-11-29T02:12:22.592Z,80.00
2022-11-29T02:15:40.969Z,152.27
2022-11-29T02:18:45.846Z,84.63
2022-11-29T02:21:49.381Z,93.72
2022-11-29T02:24:54.656Z,118.75
2022-11-29T02:28:27.036Z,66.50
2022-11-29T02:31:26.121Z,80.60
2022-11-29T02:34:46.240Z,68.38
2022-11-29T02:38:18.667Z,85.82
2022-11-29T02:41:20.804Z,138.63
2022-11-29T02:44:07.771Z,87.57
2022-11-29T02:47:24.966Z,54.10
2022-11-29T02:50:19.948Z,97.35
2022-11-29T02:53:32.465Z,143.23
2022-11-29T02:56:58.082Z,136.15
2022-11-29T02:59:51.127Z,88.60
2022-11-29T03:03:02.023Z,129.57
2022-11-29T03:05:48.957Z,69.85
2022-11-29T03:09:00.761Z,140.52
2022-11-29T03:12:01.944Z,147.02
2022-11-29T03:18:19.061Z,172.55
2022-11-29T03:21:15.216Z,323.10
2022-11-29T03:24:15.421Z,233.48
2022-11-29T03:27:09.397Z,76.78
2022-11-29T03:30:00.603Z,60.00
2022-11-29T03:36:15.156Z,337.00
2022-11-29T03:39:07.173Z,99.00
2022-11-29T03:42:04.509Z,99.82
2022-11-29T03:45:16.573Z,167.48
2022-11-29T03:48:09.227Z,75.90
2022-11-29T03:51:22.745Z,68.68
2022-11-29T03:54:14.697Z,117.10
2022-11-29T03:57:02.044Z,61.85
2022-11-29T04:00:06.625Z,63.17
2022-11-29T04:03:38.758Z,143.85
2022-11-29T04:07:04.870Z,36.28
2022-11-29T04:10:07.187Z,38.97
2022-11-29T04:13:10.604Z,45.38
2022-11-29T04:16:18.943Z,49.53
2022-11-29T04:19:22.889Z,62.53
2022-11-29T04:22:19.013Z,45.30
2022-11-29T04:25:31.604Z,53.38
2022-11-29T04:28:47.922Z,35.40
2022-11-29T04:32:08.854Z,44.63
2022-11-29T04:35:34.944Z,48.28
2022-11-29T04:38:34.146Z,45.55
2022-11-29T04:41:57.614Z,48.08
2022-11-29T04:45:24.806Z,37.47
2022-11-29T04:48:27.119Z,73.35
2022-11-29T04:51:29.259Z,89.55
2022-11-29T04:54:35.082Z,90.72
2022-11-29T04:57:25.015Z,77.18
2022-11-29T05:00:16.166Z,69.20
2022-11-29T05:06:29.483Z,70.55
2022-11-29T05:09:24.992Z,95.82
2022-11-29T05:12:27.113Z,168.23
2022-11-29T05:15:53.935Z,94.95
2022-11-29T05:19:08.975Z,118.82
2022-11-29T05:22:34.182Z,169.40
2022-11-29T05:25:33.293Z,146.98
2022-11-29T05:28:33.127Z,83.30
2022-11-29T05:31:48.998Z,143.65
2022-11-29T05:35:03.166Z,98.47
2022-11-29T05:38:08.376Z,105.07
2022-11-29T05:41:16.714Z,112.63
2022-11-29T05:44:41.842Z,139.98
2022-11-29T05:47:57.735Z,102.28
2022-11-29T05:51:16.728Z,107.75
2022-11-29T05:54:37.260Z,106.05
2022-11-29T05:57:46.496Z,150.33
2022-11-29T06:00:48.994Z,97.75
2022-11-29T06:03:53.764Z,102.68
2022-11-29T06:07:02.487Z,115.57
2022-11-29T06:10:01.466Z,116.72
2022-11-29T06:13:02.799Z,163.05
2022-11-29T06:16:29.709Z,157.88
2022-11-29T06:19:27.890Z,136.27
2022-11-29T06:22:37.682Z,147.15
2022-11-29T06:25:37.986Z,205.32
2022-11-29T06:28:41.738Z,252.93
2022-11-29T06:31:34.270Z,240.60
2022-11-29T06:34:58.926Z,230.90
2022-11-29T06:37:51.989Z,240.73
2022-11-29T06:40:39.706Z,257.15
2022-11-29T06:43:27.152Z,189.50
2022-11-29T06:46:17.727Z,175.77
2022-11-29T06:49:40.027Z,159.55
2022-11-29T06:52:30.031Z,165.57
2022-11-29T06:55:32.275Z,166.95
2022-11-29T06:58:44.614Z,288.98
2022-11-29T07:01:45.765Z,233.55
2022-11-29T07:04:56.561Z,195.45
2022-11-29T07:07:44.311Z,152.32
2022-11-29T07:10:34.970Z,241.65
2022-11-29T07:13:22.866Z,184.68
2022-11-29T07:16:37.190Z,113.10
2022-11-29T07:19:51.969Z,157.10
2022-11-29T07:23:10.612Z,98.20
2022-11-29T07:26:09.620Z,118.25
2022-11-29T07:29:26.058Z,108.00
2022-11-29T07:32:34.359Z,182.70
2022-11-29T07:35:30.552Z,122.55
2022-11-29T07:38:27.093Z,94.13
2022-11-29T07:41:48.205Z,131.05
2022-11-29T07:44:57.682Z,128.23
2022-11-29T07:47:46.297Z,111.45
2022-11-29T07:53:25.556Z,92.30
2022-11-29T07:56:13.161Z,71.20
2022-11-29T07:59:00.599Z,167.00
2022-11-29T08:01:48.041Z,52.28
2022-11-29T08:04:35.669Z,163.65
2022-11-29T08:07:23.321Z,176.85
2022-11-29T08:10:15.206Z,190.68
2022-11-29T08:13:02.927Z,173.32
2022-11-29T08:15:52.010Z,152.15
2022-11-29T08:18:40.258Z,208.65
2022-11-29T08:21:27.567Z,123.10
2022-11-29T08:24:14.924Z,168.95
2022-11-29T08:27:02.113Z,128.27
2022-11-29T08:29:58.148Z,110.25
2022-11-29T08:32:51.088Z,174.90
2022-11-29T08:35:39.939Z,145.00
2022-11-29T08:38:27.311Z,129.77
2022-11-29T08:41:16.871Z,132.18
2022-11-29T08:44:07.932Z,61.00
2022-11-29T08:50:06.879Z,47.17
2022-11-29T08:53:12.999Z,34.97
2022-11-29T08:56:00.470Z,19.40
2022-11-29T08:58:47.832Z,69.53
2022-11-29T09:01:35.439Z,42.35
2022-11-29T09:04:22.690Z,81.85
2022-11-29T09:07:12.211Z,74.80
2022-11-29T09:10:05.051Z,73.82
2022-11-29T09:12:52.273Z,40.70
2022-11-29T09:15:41.832Z,21.77
2022-11-29T09:18:29.633Z,21.38
2022-11-29T09:21:17.278Z,63.13
2022-11-29T09:24:06.520Z,71.32
2022-11-29T09:26:54.043Z,57.45
2022-11-29T09:29:41.215Z,14.93
2022-11-29T09:32:28.464Z,19.88
2022-11-29T09:35:15.675Z,55.55
2022-11-29T09:38:02.924Z,14.43
2022-11-29T09:40:55.613Z,23.13
2022-11-29T09:43:55.026Z,12.40
2022-11-29T09:47:00.535Z,83.72
2022-11-29T09:50:16.167Z,105.18
2022-11-29T09:53:28.323Z,39.00
2022-11-29T09:56:30.819Z,47.15
2022-11-29T09:59:28.369Z,39.97
2022-11-29T10:02:48.200Z,188.18
2022-11-29T10:05:50.045Z,113.88
2022-11-29T10:08:42.074Z,131.35
2022-11-29T10:12:01.648Z,248.07
2022-11-29T10:15:17.102Z,20.05
2022-11-29T10:18:22.388Z,191.88
2022-11-29T10:21:17.564Z,222.40
2022-11-29T10:24:15.306Z,143.27
2022-11-29T10:27:19.438Z,180.00
2022-11-29T10:30:14.109Z,289.83
2022-11-29T10:33:13.491Z,269.02
2022-11-29T10:36:17.676Z,367.00
2022-11-29T10:39:37.446Z,381.23
2022-11-29T10:42:46.072Z,324.90
2022-11-29T10:45:39.203Z,372.00
2022-11-29T10:48:31.847Z,551.75
2022-11-29T10:51:20.791Z,141.60
2022-11-29T10:54:25.617Z,195.23
2022-11-29T10:57:19.049Z,116.90
2022-11-29T11:00:10.499Z,191.20
2022-11-29T11:03:24.423Z,117.18
2022-11-29T11:06:17.292Z,119.53
2022-11-29T11:09:36.903Z,118.20
2022-11-29T11:12:28.480Z,121.20
2022-11-29T11:15:24.822Z,232.30
2022-11-29T11:18:21.538Z,95.82
2022-11-29T11:21:12.331Z,29.70
2022-11-29T11:24:03.013Z,14.60
2022-11-29T11:26:51.201Z,81.20
2022-11-29T11:29:43.992Z,87.95
2022-11-29T11:32:31.594Z,177.57
2022-11-29T11:35:24.148Z,156.25
2022-11-29T11:38:17.346Z,59.17
2022-11-29T11:41:17.248Z,64.25
2022-11-29T11:44:15.306Z,60.65
2022-11-29T11:47:14.372Z,25.15
2022-11-29T11:50:04.699Z,22.35
2022-11-29T11:52:55.492Z,72.25
2022-11-29T11:55:46.882Z,23.05
2022-11-29T11:58:47.886Z,15.32
2022-11-29T12:01:45.246Z,55.75
2022-11-29T12:04:40.507Z,34.97
2022-11-29T12:08:06.656Z,74.55
2022-11-29T12:10:52.732Z,69.80
2022-11-29T12:13:51.227Z,79.82
2022-11-29T12:16:46.291Z,107.60
2022-11-29T12:19:52.779Z,103.10
2022-11-29T12:23:00.605Z,102.20
2022-11-29T12:25:58.269Z,101.03
2022-11-29T12:28:50.660Z,95.30
2022-11-29T12:31:44.870Z,125.45
2022-11-29T12:35:02.643Z,65.57
2022-11-29T12:38:08.815Z,34.70
2022-11-29T12:41:25.954Z,49.38
2022-11-29T12:44:31.177Z,70.68
2022-11-29T12:47:37.412Z,31.13
2022-11-29T12:50:43.929Z,13.45
2022-11-29T12:54:03.973Z,12.30
2022-11-29T12:57:02.189Z,12.13
2022-11-29T13:00:05.167Z,12.27
2022-11-29T13:03:16.566Z,19.15
2022-11-29T13:06:24.674Z,11.95
2022-11-29T13:09:29.622Z,21.08
2022-11-29T13:12:41.718Z,27.25
2022-11-29T13:15:51.800Z,427.33
2022-11-29T13:19:09.857Z,284.45
2022-11-29T13:25:22.083Z,317.83
2022-11-29T13:28:29.680Z,432.80
2022-11-29T13:31:22.674Z,421.65
2022-11-29T13:34:19.293Z,390.27
2022-11-29T13:37:26.251Z,442.70
2022-11-29T13:40:44.975Z,487.50
2022-11-29T13:43:45.450Z,403.60
2022-11-29T13:46:54.228Z,367.48
2022-11-29T13:50:02.659Z,288.67
2022-11-29T13:52:50.402Z,382.70
2022-11-29T13:56:02.504Z,408.08
2022-11-29T13:58:54.747Z,498.73
2022-11-29T14:01:53.451Z,464.77
2022-11-29T14:04:46.694Z,504.75
2022-11-29T14:07:36.537Z,242.63
2022-11-29T14:10:29.011Z,368.02
2022-11-29T14:13:18.300Z,420.55
2022-11-29T14:16:13.301Z,411.17
2022-11-29T14:19:08.766Z,412.58
2022-11-29T14:22:07.035Z,358.23
2022-11-29T14:24:59.674Z,390.08
2022-11-29T14:27:57.362Z,714.17
2022-11-29T14:30:45.193Z,454.92
2022-11-29T14:34:00.960Z,682.60
2022-11-29T14:36:59.059Z,586.17
2022-11-29T14:39:52.187Z,689.75
2022-11-29T14:42:48.050Z,753.17
2022-11-29T14:45:35.993Z,789.65
2022-11-29T14:48:30.284Z,1003.67
2022-11-29T14:51:20.636Z,913.55
2022-11-29T14:54:13.761Z,701.63
2022-11-29T14:57:46.170Z,697.03
2022-11-29T15:00:54.545Z,635.92
2022-11-29T15:03:50.391Z,708.70
2022-11-29T15:06:45.148Z,837.53
2022-11-29T15:09:37.610Z,586.88
2022-11-29T15:12:29.437Z,791.72
2022-11-29T15:16:09.450Z,637.08
2022-11-29T15:19:33.745Z,286.38
2022-11-29T15:22:28.048Z,223.48
2022-11-29T15:25:22.230Z,314.65
2022-11-29T15:28:21.499Z,253.98
2022-11-29T15:31:14.428Z,254.43
2022-11-29T15:34:02.382Z,228.52
2022-11-29T15:36:52.152Z,158.18
2022-11-29T15:39:46.040Z,101.90
2022-11-29T15:42:45.037Z,175.27
2022-11-29T15:45:38.230Z,182.15
2022-11-29T15:48:28.771Z,253.07
2022-11-29T15:51:37.196Z,120.10
2022-11-29T15:54:42.961Z,67.72
2022-11-29T15:57:31.179Z,60.08
2022-11-29T16:00:24.108Z,56.95
2022-11-29T16:03:21.938Z,57.80
2022-11-29T16:06:24.910Z,214.30
2022-11-29T16:09:19.808Z,295.75
2022-11-29T16:12:13.034Z,408.25
2022-11-29T16:15:01.279Z,191.35
2022-11-29T16:17:48.510Z,342.05
2022-11-29T16:20:36.189Z,490.55
2022-11-29T16:23:35.334Z,455.83
2022-11-29T16:26:29.999Z,338.92
2022-11-29T16:29:24.694Z,418.73
2022-11-29T16:32:30.465Z,397.80
2022-11-29T16:35:28.154Z,276.90
2022-11-29T16:38:19.769Z,196.55
2022-11-29T16:41:20.281Z,117.15
2022-11-29T16:44:41.589Z,103.63
2022-11-29T16:50:18.368Z,64.85
2022-11-29T16:53:35.303Z,66.70
2022-11-29T16:56:27.598Z,75.10
2022-11-29T16:59:25.522Z,83.00
2022-11-29T17:02:15.038Z,67.10
2022-11-29T17:05:02.219Z,65.50
2022-11-29T17:07:50.484Z,75.50
2022-11-29T17:10:37.659Z,82.40
2022-11-29T17:13:24.867Z,72.78
2022-11-29T17:16:16.900Z,98.70
2022-11-29T17:19:04.023Z,85.88
2022-11-29T17:21:52.541Z,87.68
2022-11-29T17:24:44.783Z,108.45
2022-11-29T17:27:35.391Z,87.28
2022-11-29T17:30:22.450Z,98.85
2022-11-29T17:33:09.442Z,128.95
2022-11-29T17:35:56.488Z,91.80
2022-11-29T17:38:45.158Z,133.02
2022-11-29T17:41:33.054Z,147.18
2022-11-29T17:44:20.159Z,121.90
2022-11-29T17:47:07.498Z,92.03
2022-11-29T17:49:55.447Z,95.55
2022-11-29T17:52:43.296Z,109.20
2022-11-29T17:55:30.816Z,92.35
2022-11-29T17:58:18.277Z,99.70
2022-11-29T18:01:08.734Z,96.85
2022-11-29T18:03:58.294Z,88.65
2022-11-29T18:06:50.004Z,88.45
2022-11-29T18:09:37.841Z,99.65
2022-11-29T18:12:25.508Z,84.20
2022-11-29T18:15:13.246Z,88.68
2022-11-29T18:18:00.393Z,77.05
2022-11-29T18:20:47.745Z,73.00
2022-11-29T18:23:37.897Z,75.78
2022-11-29T18:26:26.322Z,105.93
2022-11-29T18:29:14.535Z,88.82
2022-11-29T18:32:01.949Z,90.78
2022-11-29T18:34:49.666Z,91.68
2022-11-29T18:38:12.734Z,76.80
2022-11-29T18:40:45.888Z,103.95
2022-11-29T18:43:33.238Z,89.70
2022-11-29T18:46:20.649Z,86.05
2022-11-29T18:49:10.065Z,87.97
2022-11-29T18:51:57.590Z,93.20
2022-11-29T18:54:45.263Z,89.00
2022-11-29T18:57:32.976Z,86.47
2022-11-29T19:00:20.974Z,100.65
2022-11-29T19:03:08.433Z,94.68
2022-11-29T19:05:56.299Z,99.32
2022-11-29T19:08:43.792Z,91.20
2022-11-29T19:11:32.492Z,96.18
2022-11-29T19:14:21.178Z,95.00
2022-11-29T19:17:08.764Z,89.07
2022-11-29T19:19:56.047Z,86.45
2022-11-29T19:22:43.106Z,87.53
2022-11-29T19:25:30.166Z,85.53
2022-11-29T19:28:18.592Z,109.70
2022-11-29T19:31:07.095Z,144.75
2022-11-29T19:33:54.721Z,109.70
2022-11-29T19:36:46.422Z,96.00
2022-11-29T19:39:33.966Z,106.68
2022-11-29T19:42:22.071Z,77.22
2022-11-29T19:45:18.533Z,81.20
2022-11-29T19:48:06.241Z,85.20
2022-11-29T19:50:53.438Z,90.13
2022-11-29T19:53:40.511Z,80.85
2022-11-29T19:56:28.896Z,91.63
2022-11-29T19:59:15.956Z,76.70
2022-11-29T20:02:03.283Z,76.13
2022-11-29T20:04:51.537Z,83.40
2022-11-29T20:07:38.591Z,95.20
2022-11-29T20:10:25.847Z,65.10
2022-11-29T20:13:13.108Z,98.85
2022-11-29T20:16:10.492Z,66.03
2022-11-29T20:18:58.629Z,72.25
2022-11-29T20:21:48.733Z,62.55
2022-11-29T20:24:41.316Z,74.43
2022-11-29T20:27:32.417Z,75.30
2022-11-29T20:30:19.788Z,61.95
2022-11-29T20:33:07.251Z,68.70
2022-11-29T20:36:21.841Z,70.82
2022-11-29T20:39:48.648Z,58.03
2022-11-29T20:42:45.902Z,61.05
2022-11-29T20:45:33.551Z,67.40
2022-11-29T20:48:22.756Z,68.72
2022-11-29T20:51:10.807Z,60.78
2022-11-29T20:53:58.959Z,64.55
2022-11-29T20:56:48.077Z,58.70
2022-11-29T20:59:35.291Z,54.35
2022-11-29T21:02:22.999Z,68.18
2022-11-29T21:05:10.828Z,58.70
2022-11-29T21:07:58.056Z,57.90
2022-11-29T21:10:45.645Z,59.83
2022-11-29T21:13:33.585Z,59.63
2022-11-29T21:16:27.809Z,62.95
2022-11-29T21:19:21.336Z,55.97
2022-11-29T21:22:20.461Z,62.67
2022-11-29T21:25:29.995Z,53.58
2022-11-29T21:28:17.460Z,57.67
2022-11-29T21:31:04.815Z,61.75
2022-11-29T21:33:52.203Z,62.25
2022-11-29T21:36:39.669Z,55.28
2022-11-29T21:39:33.163Z,48.63
2022-11-29T21:42:20.409Z,60.08
2022-11-29T21:45:13.418Z,56.00
2022-11-29T21:48:02.528Z,46.55
2022-11-29T21:50:50.054Z,53.35
2022-11-29T21:53:38.979Z,51.78
2022-11-29T21:56:26.304Z,45.83
2022-11-29T21:59:13.380Z,46.45
2022-11-29T22:02:00.907Z,50.78
2022-11-29T22:04:48.914Z,51.35
2022-11-29T22:07:36.215Z,51.05
2022-11-29T22:10:23.497Z,49.70
2022-11-29T22:13:10.483Z,51.00
2022-11-29T22:16:08.534Z,57.03
2022-11-29T22:18:55.545Z,50.25
2022-11-29T22:21:44.943Z,56.55
2022-11-29T22:24:36.676Z,37.88
2022-11-29T22:27:23.748Z,43.58
2022-11-29T22:30:11.319Z,40.58
2022-11-29T22:32:58.456Z,41.97
2022-11-29T22:35:45.511Z,44.33
2022-11-29T22:38:33.163Z,38.30
2022-11-29T22:41:20.660Z,38.95
2022-11-29T22:44:07.929Z,34.42
2022-11-29T22:46:57.018Z,31.90
2022-11-29T22:49:44.517Z,39.97
2022-11-29T22:52:31.519Z,35.92
2022-11-29T22:55:19.059Z,38.28
2022-11-29T22:58:06.286Z,38.50
2022-11-29T23:01:00.588Z,39.40
2022-11-29T23:03:54.441Z,45.75
2022-11-29T23:06:45.784Z,46.03
2022-11-29T23:09:32.827Z,38.17
2022-11-29T23:12:20.717Z,38.42
2022-11-29T23:15:07.894Z,34.85
2022-11-29T23:17:54.842Z,44.42
2022-11-29T23:20:41.835Z,35.78
2022-11-29T23:23:29.120Z,41.03
2022-11-29T23:26:19.793Z,34.42
2022-11-29T23:29:09.811Z,42.95
2022-11-29T23:31:56.918Z,34.08
2022-11-29T23:34:44.113Z,36.67
2022-11-29T23:37:31.322Z,31.15
2022-11-29T23:40:18.452Z,40.05
2022-11-29T23:43:05.850Z,38.10
2022-11-29T23:45:53.108Z,39.42
2022-11-29T23:48:40.470Z,36.83
2022-11-29T23:51:27.477Z,34.92
2022-11-29T23:54:14.647Z,36.08
2022-11-29T23:57:01.626Z,40.22
2022-11-29T23:59:50.109Z,32.53
